createdAt,value
2022-12-31T00:00:04.933Z,10.79
2022-12-31T00:02:31.816Z,10.83
2022-12-31T00:04:58.318Z,10.89
2022-12-31T00:07:24.877Z,10.93
2022-12-31T00:09:51.287Z,10.94
2022-12-31T00:12:17.765Z,10.97
2022-12-31T00:14:44.263Z,10.99
2022-12-31T00:17:10.756Z,10.99
2022-12-31T00:19:37.246Z,11.04
2022-12-31T00:22:03.706Z,11.08
2022-12-31T00:24:31.088Z,11.12
2022-12-31T00:26:57.626Z,11.05
2022-12-31T00:29:24.166Z,11.15
2022-12-31T00:31:50.697Z,11.18
2022-12-31T00:34:17.203Z,11.17
2022-12-31T00:36:45.889Z,11.19
2022-12-31T00:39:12.718Z,11.18
2022-12-31T00:41:39.184Z,11.23
2022-12-31T00:44:05.773Z,11.24
2022-12-31T00:46:32.421Z,11.27
2022-12-31T00:48:58.994Z,11.22
2022-12-31T00:51:29.003Z,11.27
2022-12-31T00:53:56.738Z,11.29
2022-12-31T00:56:26.202Z,11.23
2022-12-31T00:58:53.555Z,11.28
2022-12-31T01:01:24.292Z,11.27
2022-12-31T01:03:53.543Z,11.27
2022-12-31T01:06:21.011Z,11.27
2022-12-31T01:08:51.741Z,11.26
2022-12-31T01:11:24.581Z,11.26
2022-12-31T01:14:01.579Z,11.25
2022-12-31T01:16:42.863Z,11.23
2022-12-31T01:19:27.234Z,11.22
2022-12-31T01:21:54.044Z,11.20
2022-12-31T01:24:21.211Z,11.21
2022-12-31T01:26:49.074Z,11.19
2022-12-31T01:29:16.932Z,11.19
2022-12-31T01:31:43.393Z,11.14
2022-12-31T01:34:09.856Z,11.19
2022-12-31T01:36:37.491Z,11.14
2022-12-31T01:39:05.967Z,11.18
2022-12-31T01:41:39.336Z,11.21
2022-12-31T01:44:11.508Z,11.21
2022-12-31T01:46:42.750Z,11.21
2022-12-31T01:49:12.194Z,11.23
2022-12-31T01:51:40.579Z,11.20
2022-12-31T01:54:09.166Z,11.16
2022-12-31T01:56:37.563Z,11.15
2022-12-31T01:59:07.835Z,11.15
2022-12-31T02:01:37.138Z,11.15
2022-12-31T02:04:09.312Z,11.15
2022-12-31T02:06:41.395Z,11.17
2022-12-31T02:09:08.792Z,11.17
2022-12-31T02:11:37.842Z,11.16
2022-12-31T02:14:13.130Z,11.16
2022-12-31T02:17:10.601Z,11.14
2022-12-31T02:20:15.720Z,11.13
2022-12-31T02:22:57.272Z,11.13
2022-12-31T02:25:52.895Z,11.12
2022-12-31T02:28:41.513Z,11.09
2022-12-31T02:31:36.934Z,11.08
2022-12-31T02:34:12.298Z,11.04
2022-12-31T02:36:43.337Z,11.03
2022-12-31T02:39:12.348Z,11.01
2022-12-31T02:41:50.725Z,10.95
2022-12-31T02:44:26.233Z,10.94
2022-12-31T02:47:10.202Z,10.90
2022-12-31T02:49:42.290Z,10.87
2022-12-31T02:52:34.087Z,10.84
2022-12-31T02:55:11.220Z,10.79
2022-12-31T02:57:46.891Z,10.72
2022-12-31T03:00:34.996Z,10.66
2022-12-31T03:03:03.646Z,10.58
2022-12-31T03:05:34.334Z,10.52
2022-12-31T03:08:00.753Z,10.48
2022-12-31T03:10:27.208Z,10.45
2022-12-31T03:12:53.894Z,10.45
2022-12-31T03:15:28.542Z,10.44
2022-12-31T03:18:13.777Z,10.42
2022-12-31T03:21:05.799Z,10.38
2022-12-31T03:23:39.953Z,10.38
2022-12-31T03:26:11.766Z,10.36
2022-12-31T03:28:40.234Z,10.37
2022-12-31T03:31:07.890Z,10.37
2022-12-31T03:33:38.989Z,10.42
2022-12-31T03:36:08.276Z,10.43
2022-12-31T03:38:34.892Z,10.41
2022-12-31T03:41:01.330Z,10.43
2022-12-31T03:43:27.832Z,10.43
2022-12-31T03:45:55.282Z,10.41
2022-12-31T03:48:23.351Z,10.45
2022-12-31T03:50:50.211Z,10.45
2022-12-31T03:53:17.366Z,10.44
2022-12-31T03:55:43.876Z,10.45
2022-12-31T03:58:10.630Z,10.46
2022-12-31T04:00:37.048Z,10.47
2022-12-31T04:03:03.611Z,10.48
2022-12-31T04:05:30.070Z,10.48
2022-12-31T04:07:56.499Z,10.49
2022-12-31T04:10:23.025Z,10.52
2022-12-31T04:12:49.515Z,10.52
2022-12-31T04:15:20.500Z,10.53
2022-12-31T04:17:47.950Z,10.54
2022-12-31T04:20:15.084Z,10.57
2022-12-31T04:22:41.590Z,10.61
2022-12-31T04:25:12.884Z,10.66
2022-12-31T04:27:40.063Z,10.68
2022-12-31T04:30:09.861Z,10.70
2022-12-31T04:32:36.383Z,10.73
2022-12-31T04:35:02.915Z,10.75
2022-12-31T04:37:29.359Z,10.80
2022-12-31T04:40:00.324Z,10.84
2022-12-31T04:42:30.056Z,10.88
2022-12-31T04:44:56.478Z,10.96
2022-12-31T04:47:23.989Z,11.00
2022-12-31T04:49:50.700Z,11.03
2022-12-31T04:52:17.160Z,11.08
2022-12-31T04:54:43.609Z,11.13
2022-12-31T04:57:09.997Z,11.20
2022-12-31T04:59:36.448Z,11.26
2022-12-31T05:02:03.207Z,11.28
2022-12-31T05:04:29.851Z,11.35
2022-12-31T05:06:56.295Z,11.39
2022-12-31T05:09:24.160Z,11.45
2022-12-31T05:11:50.923Z,11.45
2022-12-31T05:14:17.481Z,11.53
2022-12-31T05:16:43.952Z,11.55
2022-12-31T05:19:10.385Z,11.61
2022-12-31T05:21:36.999Z,11.66
2022-12-31T05:24:03.534Z,11.74
2022-12-31T05:26:30.023Z,11.84
2022-12-31T05:28:56.567Z,11.92
2022-12-31T05:31:23.005Z,12.02
2022-12-31T05:33:49.423Z,12.10
2022-12-31T05:36:15.898Z,12.12
2022-12-31T05:38:42.415Z,12.13
2022-12-31T05:41:08.953Z,12.18
2022-12-31T05:43:36.380Z,12.20
2022-12-31T05:46:05.130Z,12.26
2022-12-31T05:48:32.084Z,12.28
2022-12-31T05:50:58.764Z,12.27
2022-12-31T05:53:25.214Z,12.27
2022-12-31T05:55:51.662Z,12.29
2022-12-31T05:58:18.206Z,12.27
2022-12-31T06:00:44.746Z,12.27
2022-12-31T06:03:11.409Z,12.28
2022-12-31T06:05:42.459Z,12.24
2022-12-31T06:08:10.345Z,12.24
2022-12-31T06:10:39.160Z,12.19
2022-12-31T06:13:05.831Z,12.19
2022-12-31T06:15:32.416Z,12.20
2022-12-31T06:17:59.031Z,12.15
2022-12-31T06:20:25.488Z,12.19
2022-12-31T06:22:51.893Z,12.16
2022-12-31T06:25:18.385Z,12.14
2022-12-31T06:27:44.809Z,12.11
2022-12-31T06:30:11.825Z,12.10
2022-12-31T06:32:39.332Z,12.09
2022-12-31T06:35:06.591Z,12.08
2022-12-31T06:37:33.069Z,12.08
2022-12-31T06:39:59.579Z,12.10
2022-12-31T06:42:29.424Z,12.11
2022-12-31T06:44:55.824Z,12.10
2022-12-31T06:47:22.212Z,12.11
2022-12-31T06:49:48.624Z,12.10
2022-12-31T06:52:15.021Z,12.11
2022-12-31T06:54:41.728Z,12.10
2022-12-31T06:57:09.217Z,12.04
2022-12-31T06:59:36.044Z,12.08
2022-12-31T07:02:14.160Z,12.06
2022-12-31T07:04:48.067Z,12.06
2022-12-31T07:07:46.697Z,12.05
2022-12-31T07:10:21.596Z,12.02
2022-12-31T07:13:04.941Z,12.00
2022-12-31T07:15:57.360Z,11.97
2022-12-31T07:18:42.156Z,11.94
2022-12-31T07:21:12.479Z,11.91
2022-12-31T07:23:40.112Z,11.90
2022-12-31T07:26:30.589Z,11.89
2022-12-31T07:29:05.161Z,11.90
2022-12-31T07:32:18.439Z,11.93
2022-12-31T07:35:09.386Z,11.92
2022-12-31T07:37:59.697Z,11.90
2022-12-31T07:41:09.335Z,11.87
2022-12-31T07:43:41.228Z,11.90
2022-12-31T07:46:34.662Z,11.92
2022-12-31T07:49:03.810Z,11.92
2022-12-31T07:51:30.506Z,11.94
2022-12-31T07:53:56.925Z,11.95
2022-12-31T07:56:23.444Z,11.98
2022-12-31T07:59:07.909Z,12.02
2022-12-31T08:02:04.598Z,12.04
2022-12-31T08:04:49.699Z,12.06
2022-12-31T08:07:33.265Z,12.07
2022-12-31T08:10:12.542Z,12.10
2022-12-31T08:12:42.880Z,12.10
2022-12-31T08:15:14.864Z,12.14
2022-12-31T08:17:41.872Z,12.17
2022-12-31T08:20:13.038Z,12.18
2022-12-31T08:22:47.629Z,12.18
2022-12-31T08:25:14.047Z,12.17
2022-12-31T08:28:11.664Z,12.20
2022-12-31T08:30:56.772Z,12.24
2022-12-31T08:33:30.022Z,12.23
2022-12-31T08:36:24.679Z,12.27
2022-12-31T08:39:03.307Z,12.28
2022-12-31T08:41:42.651Z,12.32
2022-12-31T08:44:24.518Z,12.41
2022-12-31T08:46:58.304Z,12.48
2022-12-31T08:49:30.254Z,12.49
2022-12-31T08:51:57.399Z,12.51
2022-12-31T08:54:24.069Z,12.54
2022-12-31T08:57:05.784Z,12.56
2022-12-31T08:59:45.852Z,12.58
2022-12-31T09:02:36.923Z,12.63
2022-12-31T09:05:20.911Z,12.66
2022-12-31T09:08:03.288Z,12.67
2022-12-31T09:10:34.818Z,12.68
2022-12-31T09:13:24.823Z,12.71
2022-12-31T09:16:45.529Z,12.74
2022-12-31T09:19:11.973Z,12.76
2022-12-31T09:21:41.914Z,12.78
2022-12-31T09:24:11.792Z,12.80
2022-12-31T09:26:38.159Z,12.87
2022-12-31T09:29:14.199Z,12.93
2022-12-31T09:31:59.610Z,13.00
2022-12-31T09:34:41.800Z,13.06
2022-12-31T09:37:18.117Z,13.12
2022-12-31T09:39:47.564Z,13.16
2022-12-31T09:42:38.696Z,13.17
2022-12-31T09:45:24.160Z,13.23
2022-12-31T09:48:08.962Z,13.25
2022-12-31T09:50:59.212Z,13.31
2022-12-31T09:53:47.453Z,13.36
2022-12-31T09:56:29.728Z,13.42
2022-12-31T09:59:28.401Z,13.47
2022-12-31T10:02:23.686Z,13.53
2022-12-31T10:05:02.506Z,13.57
2022-12-31T10:07:52.962Z,13.66
2022-12-31T10:10:59.336Z,13.85
2022-12-31T10:13:58.597Z,14.06
2022-12-31T10:16:44.223Z,14.27
2022-12-31T10:19:29.444Z,14.51
2022-12-31T10:22:18.506Z,14.63
2022-12-31T10:25:21.295Z,14.84
2022-12-31T10:28:30.384Z,14.92
2022-12-31T10:31:41.547Z,15.04
2022-12-31T10:34:17.149Z,15.13
2022-12-31T10:36:54.281Z,15.24
2022-12-31T10:39:34.351Z,15.42
2022-12-31T10:42:31.472Z,15.63
2022-12-31T10:45:35.515Z,15.83
2022-12-31T10:48:29.512Z,16.02
2022-12-31T10:51:40.202Z,16.14
2022-12-31T10:54:19.052Z,16.24
2022-12-31T10:57:09.212Z,16.38
2022-12-31T11:00:06.867Z,16.56
2022-12-31T11:03:15.217Z,16.61
2022-12-31T11:06:22.588Z,16.64
2022-12-31T11:09:27.423Z,16.69
2022-12-31T11:12:23.761Z,16.61
2022-12-31T11:15:11.449Z,16.59
2022-12-31T11:17:52.194Z,16.68
2022-12-31T11:20:27.311Z,16.82
2022-12-31T11:23:04.682Z,17.07
2022-12-31T11:25:48.056Z,17.29
2022-12-31T11:28:26.214Z,17.44
2022-12-31T11:31:04.864Z,17.47
2022-12-31T11:33:52.878Z,17.52
2022-12-31T11:36:32.913Z,17.51
2022-12-31T11:39:27.267Z,17.51
2022-12-31T11:42:23.884Z,17.50
2022-12-31T11:44:59.395Z,17.51
2022-12-31T11:51:18.242Z,17.62
2022-12-31T11:53:51.917Z,17.74
2022-12-31T11:56:21.113Z,17.77
2022-12-31T11:58:51.017Z,17.71
2022-12-31T12:01:22.402Z,17.65
2022-12-31T12:03:49.156Z,17.65
2022-12-31T12:06:28.739Z,17.74
2022-12-31T12:09:07.838Z,17.77
2022-12-31T12:11:37.379Z,17.88
2022-12-31T12:14:20.482Z,17.87
2022-12-31T12:16:47.222Z,17.97
2022-12-31T12:19:18.418Z,17.98
2022-12-31T12:21:47.386Z,18.00
2022-12-31T12:24:22.681Z,18.02
2022-12-31T12:26:49.256Z,18.09
2022-12-31T12:29:26.272Z,18.18
2022-12-31T12:31:59.909Z,18.15
2022-12-31T12:34:30.003Z,18.17
2022-12-31T12:36:57.176Z,18.21
2022-12-31T12:39:26.324Z,18.16
2022-12-31T12:42:04.963Z,18.11
2022-12-31T12:44:31.886Z,17.97
2022-12-31T12:47:00.886Z,17.90
2022-12-31T12:49:42.554Z,17.83
2022-12-31T12:52:32.743Z,17.78
2022-12-31T12:55:17.920Z,17.62
2022-12-31T12:58:06.127Z,17.45
2022-12-31T13:01:18.998Z,17.36
2022-12-31T13:04:33.881Z,17.18
2022-12-31T13:07:15.855Z,17.11
2022-12-31T13:09:54.072Z,17.02
2022-12-31T13:13:21.631Z,17.03
2022-12-31T13:15:35.996Z,16.97
2022-12-31T13:18:23.943Z,16.88
2022-12-31T13:21:00.850Z,16.83
2022-12-31T13:23:40.046Z,16.70
2022-12-31T13:26:35.508Z,16.56
2022-12-31T13:29:03.779Z,16.46
2022-12-31T13:31:34.440Z,16.36
2022-12-31T13:34:27.096Z,16.26
2022-12-31T13:36:57.281Z,16.16
2022-12-31T13:39:28.384Z,16.04
2022-12-31T13:42:19.456Z,15.91
2022-12-31T13:45:00.125Z,15.84
2022-12-31T13:47:38.408Z,15.72
2022-12-31T13:50:15.114Z,15.62
2022-12-31T13:52:48.697Z,15.52
2022-12-31T13:55:30.035Z,15.43
2022-12-31T13:58:05.705Z,15.34
2022-12-31T14:00:41.012Z,15.26
2022-12-31T14:03:13.925Z,15.20
2022-12-31T14:05:56.634Z,15.13
2022-12-31T14:08:23.110Z,15.07
2022-12-31T14:11:23.421Z,15.04
2022-12-31T14:14:08.594Z,14.98
2022-12-31T14:16:51.603Z,14.95
2022-12-31T14:19:57.170Z,14.91
2022-12-31T14:22:37.701Z,14.87
2022-12-31T14:25:16.642Z,14.80
2022-12-31T14:27:46.527Z,14.78
2022-12-31T14:30:17.819Z,14.74
2022-12-31T14:32:59.156Z,14.69
2022-12-31T14:35:34.727Z,14.64
2022-12-31T14:38:26.486Z,14.59
2022-12-31T14:41:11.012Z,14.53
2022-12-31T14:44:12.789Z,14.46
2022-12-31T14:47:00.842Z,14.41
2022-12-31T14:49:45.503Z,14.36
2022-12-31T14:52:31.678Z,14.30
2022-12-31T14:55:23.569Z,14.25
2022-12-31T15:00:39.920Z,14.13
2022-12-31T15:03:23.846Z,14.08
2022-12-31T15:05:53.875Z,14.00
2022-12-31T15:08:48.301Z,13.99
2022-12-31T15:11:39.737Z,13.98
2022-12-31T15:14:16.741Z,13.93
2022-12-31T15:16:54.441Z,13.88
2022-12-31T15:20:16.947Z,13.83
2022-12-31T15:22:44.184Z,13.74
2022-12-31T15:25:41.275Z,13.67
2022-12-31T15:28:25.429Z,13.58
2022-12-31T15:30:56.191Z,13.51
2022-12-31T15:33:40.922Z,13.45
2022-12-31T15:36:13.973Z,13.39
2022-12-31T15:38:41.706Z,13.32
2022-12-31T15:41:19.925Z,13.29
2022-12-31T15:43:54.648Z,13.23
2022-12-31T15:46:28.264Z,13.17
2022-12-31T15:49:06.772Z,13.13
2022-12-31T15:51:56.025Z,13.04
2022-12-31T15:54:38.051Z,12.95
2022-12-31T15:57:09.420Z,12.90
2022-12-31T15:59:38.107Z,12.85
2022-12-31T16:02:05.247Z,12.81
2022-12-31T16:04:33.585Z,12.74
2022-12-31T16:07:02.537Z,12.71
2022-12-31T16:09:34.839Z,12.64
2022-12-31T16:12:03.696Z,12.64
2022-12-31T16:14:54.136Z,12.60
2022-12-31T16:17:29.497Z,12.56
2022-12-31T16:19:58.384Z,12.49
2022-12-31T16:22:39.374Z,12.51
2022-12-31T16:27:54.753Z,12.48
2022-12-31T16:30:25.508Z,12.41
2022-12-31T16:32:54.859Z,12.43
2022-12-31T16:35:39.123Z,12.40
2022-12-31T16:38:13.211Z,12.37
2022-12-31T16:41:00.668Z,12.33
2022-12-31T16:43:35.387Z,12.30
2022-12-31T16:46:26.615Z,12.28
2022-12-31T16:48:57.135Z,12.25
2022-12-31T16:51:32.407Z,12.19
2022-12-31T16:54:01.225Z,12.18
2022-12-31T16:56:39.252Z,12.19
2022-12-31T16:59:26.433Z,12.15
2022-12-31T17:01:57.067Z,12.23
2022-12-31T17:04:24.271Z,12.28
2022-12-31T17:06:50.843Z,12.33
2022-12-31T17:09:21.101Z,12.38
2022-12-31T17:11:52.434Z,12.43
2022-12-31T17:14:20.215Z,12.46
2022-12-31T17:17:06.142Z,12.48
2022-12-31T17:19:42.942Z,12.50
2022-12-31T17:22:36.973Z,12.53
2022-12-31T17:25:03.766Z,12.59
2022-12-31T17:27:30.434Z,12.60
2022-12-31T17:30:29.334Z,12.69
2022-12-31T17:33:04.522Z,12.74
2022-12-31T17:35:34.150Z,12.78
2022-12-31T17:38:22.658Z,12.84
2022-12-31T17:41:13.345Z,12.89
2022-12-31T17:43:40.229Z,12.94
2022-12-31T17:46:12.793Z,12.99
2022-12-31T17:48:39.771Z,12.97
2022-12-31T17:51:06.437Z,12.95
2022-12-31T17:53:32.944Z,13.00
2022-12-31T17:56:05.434Z,13.00
2022-12-31T17:58:37.523Z,13.02
2022-12-31T18:01:08.791Z,13.03
2022-12-31T18:03:35.923Z,13.03
2022-12-31T18:06:02.862Z,13.10
2022-12-31T18:08:29.309Z,13.13
2022-12-31T18:10:55.938Z,13.15
2022-12-31T18:13:27.051Z,13.16
2022-12-31T18:15:54.506Z,13.22
2022-12-31T18:18:26.419Z,13.27
2022-12-31T18:20:58.090Z,13.28
2022-12-31T18:23:30.540Z,13.27
2022-12-31T18:25:57.196Z,13.29
2022-12-31T18:28:23.618Z,13.28
2022-12-31T18:30:50.250Z,13.24
2022-12-31T18:33:22.191Z,13.29
2022-12-31T18:36:08.417Z,13.26
2022-12-31T18:38:35.916Z,13.23
2022-12-31T18:41:02.344Z,13.19
2022-12-31T18:43:28.739Z,13.16
2022-12-31T18:45:55.313Z,13.13
2022-12-31T18:48:21.773Z,13.10
2022-12-31T18:50:48.646Z,13.05
2022-12-31T18:53:25.130Z,12.99
2022-12-31T18:55:57.150Z,12.94
2022-12-31T18:58:24.224Z,12.91
2022-12-31T19:00:51.647Z,12.89
2022-12-31T19:03:21.839Z,12.86
2022-12-31T19:05:50.572Z,12.83
2022-12-31T19:08:18.437Z,12.82
2022-12-31T19:10:45.412Z,12.79
2022-12-31T19:13:14.076Z,12.76
2022-12-31T19:15:46.130Z,12.75
2022-12-31T19:18:12.624Z,12.74
2022-12-31T19:20:39.635Z,12.74
2022-12-31T19:23:06.100Z,12.72
2022-12-31T19:25:34.909Z,12.74
2022-12-31T19:28:13.031Z,12.74
2022-12-31T19:30:39.485Z,12.73
2022-12-31T19:33:05.921Z,12.78
2022-12-31T19:35:32.423Z,12.85
2022-12-31T19:40:30.734Z,12.95
2022-12-31T19:42:57.729Z,12.95
2022-12-31T19:45:29.140Z,13.00
2022-12-31T19:47:56.768Z,13.01
2022-12-31T19:50:26.633Z,13.02
2022-12-31T19:52:56.535Z,13.03
2022-12-31T19:55:26.183Z,13.05
2022-12-31T19:57:52.755Z,13.08
2022-12-31T20:00:20.387Z,13.07
2022-12-31T20:02:48.550Z,13.08
2022-12-31T20:05:16.322Z,13.05
2022-12-31T20:07:43.067Z,13.02
2022-12-31T20:10:10.767Z,13.05
2022-12-31T20:12:43.978Z,13.03
2022-12-31T20:15:10.967Z,13.02
2022-12-31T20:17:37.558Z,12.93
2022-12-31T20:20:05.200Z,12.99
2022-12-31T20:22:31.703Z,12.97
2022-12-31T20:24:58.250Z,12.94
2022-12-31T20:27:24.775Z,12.81
2022-12-31T20:29:51.187Z,12.83
2022-12-31T20:32:17.616Z,12.80
2022-12-31T20:34:44.037Z,12.74
2022-12-31T20:37:10.451Z,12.72
2022-12-31T20:39:37.511Z,12.69
2022-12-31T20:42:04.605Z,12.69
2022-12-31T20:44:31.112Z,12.68
2022-12-31T20:46:57.543Z,12.65
2022-12-31T20:49:52.120Z,12.61
2022-12-31T20:52:10.315Z,12.56
2022-12-31T20:54:37.423Z,12.54
2022-12-31T20:57:03.982Z,12.51
2022-12-31T20:59:30.439Z,12.50
2022-12-31T21:02:20.596Z,12.50
2022-12-31T21:04:45.283Z,12.46
2022-12-31T21:07:12.082Z,12.46
2022-12-31T21:09:38.607Z,12.48
2022-12-31T21:12:23.978Z,12.49
2022-12-31T21:14:50.398Z,12.48
2022-12-31T21:17:16.819Z,12.49
2022-12-31T21:19:43.233Z,12.52
2022-12-31T21:22:09.654Z,12.54
2022-12-31T21:24:36.045Z,12.60
2022-12-31T21:27:02.441Z,12.61
2022-12-31T21:29:34.148Z,12.62
2022-12-31T21:32:01.150Z,12.66
2022-12-31T21:34:27.613Z,12.70
2022-12-31T21:36:54.097Z,12.71
2022-12-31T21:39:21.553Z,12.71
2022-12-31T21:41:50.925Z,12.77
2022-12-31T21:44:22.941Z,12.79
2022-12-31T21:47:33.187Z,12.83
2022-12-31T21:49:40.731Z,12.86
2022-12-31T21:52:26.004Z,12.85
2022-12-31T21:55:15.836Z,12.86
2022-12-31T21:58:15.575Z,12.88
2022-12-31T22:00:48.476Z,12.91
2022-12-31T22:03:24.211Z,12.99
2022-12-31T22:05:54.103Z,13.02
2022-12-31T22:08:22.725Z,13.07
2022-12-31T22:10:52.720Z,13.13
2022-12-31T22:13:19.734Z,13.15
2022-12-31T22:15:47.608Z,13.18
2022-12-31T22:18:15.782Z,13.25
2022-12-31T22:20:42.374Z,13.28
2022-12-31T22:23:08.919Z,13.31
2022-12-31T22:25:36.666Z,13.33
2022-12-31T22:28:36.685Z,13.35
2022-12-31T22:30:50.336Z,13.33
2022-12-31T22:33:17.014Z,13.30
2022-12-31T22:35:43.489Z,13.32
2022-12-31T22:38:12.152Z,13.29
2022-12-31T22:40:39.273Z,13.26
2022-12-31T22:43:05.681Z,13.23
2022-12-31T22:45:32.120Z,13.21
2022-12-31T22:47:58.519Z,13.19
2022-12-31T22:50:24.984Z,13.16
2022-12-31T22:52:51.548Z,13.14
2022-12-31T22:55:18.006Z,13.10
2022-12-31T22:57:44.421Z,13.07
2022-12-31T23:00:12.762Z,13.05
2022-12-31T23:02:41.899Z,13.00
2022-12-31T23:05:15.549Z,12.96
2022-12-31T23:07:42.397Z,12.93
2022-12-31T23:10:27.735Z,12.90
2022-12-31T23:12:54.140Z,12.88
2022-12-31T23:15:38.991Z,12.83
2022-12-31T23:18:23.898Z,12.81
2022-12-31T23:21:08.564Z,12.77
2022-12-31T23:23:35.058Z,12.75
2022-12-31T23:26:02.172Z,12.71
2022-12-31T23:28:28.601Z,12.71
2022-12-31T23:30:55.076Z,12.70
2022-12-31T23:33:24.188Z,12.68
2022-12-31T23:35:50.721Z,12.68
2022-12-31T23:38:18.379Z,12.66
2022-12-31T23:40:45.420Z,12.66
2022-12-31T23:43:20.109Z,12.60
2022-12-31T23:45:46.582Z,12.61
2022-12-31T23:48:13.005Z,12.59
2022-12-31T23:50:40.349Z,12.57
2022-12-31T23:53:06.774Z,12.57
2022-12-31T23:55:33.233Z,12.54
2022-12-31T23:57:59.624Z,12.51
